Aviation Digital Data Service (ADDS)

Output produced by METARs form (1503 UTC 29 May 2017)
found at http://www.aviationweather.gov/adds/metars/
 
TAF LRTZ 291100Z 2912/3012 10010KT 9999 SCT030 
     BECMG 2916/2918 27004KT SKC 
     TEMPO 3000/3003 5000 BR 
     BECMG 3006/3008 06010KT SCT025
       
LRCK 291430Z 11007KT CAVOK 25/08 Q1018 NOSIG
TAF LRCK 291100Z 2912/3012 09010KT CAVOK 
     BECMG 2916/2918 VRB04KT
       
LRTC 291430Z 08005KT CAVOK 24/09 Q1017
TAF LRTC 291400Z 2915/2924 04006KT CAVOK
       
TAF LRBO 291100Z 2912/3012 18006KT 9999 SCT040 
     BECMG 2916/2918 SKC 
     BECMG 3006/3008 SCT040
       
LRBC 291430Z 16007KT 110V190 CAVOK 26/11 Q1016
TAF LRBC 291400Z 2915/2924 15008KT CAVOK
       
LRIA 291430Z 21005KT 140V300 CAVOK 25/08 Q1016
TAF LRIA 291400Z 2915/2924 16006KT CAVOK
       
LRSV 291430Z 11007KT 040V150 CAVOK 24/11 Q1016
TAF LRSV 291400Z 2915/2924 VRB04KT CAVOK
       
LROP 291430Z 24003KT 200V270 CAVOK 25/07 Q1017 NOSIG
TAF LROP 291100Z 2912/3012 VRB04KT CAVOK
       
LRBS 291430Z 22003KT 130V300 CAVOK 25/04 Q1018 NOSIG
TAF LRBS 291100Z 2912/3012 VRB04KT CAVOK
       
LRCV 291430Z 26005KT 210V310 CAVOK 24/09 Q1018
TAF LRCV 291400Z 2915/2924 VRB04KT CAVOK
       
LRSB 291430Z VRB03KT 9999 FEW060 23/05 Q1018 NOSIG
TAF LRSB 291100Z 2912/3012 VRB04KT CAVOK
       
LRAR 291430Z 28005KT 240V320 CAVOK 26/07 Q1017
TAF LRAR 291400Z 2915/2924 19005KT CAVOK
       
LRCL 291430Z 01005KT 9999 SCT050 23/11 Q1018
TAF LRCL 291400Z 2915/2924 VRB04KT 9999 SCT050
       
LRTR 291430Z 17003KT 130V230 CAVOK 25/06 Q1018
TAF LRTR 291100Z 2912/3012 VRB04KT CAVOK
       
LRTM 291430Z 19004KT 150V230 9999 SCT040 25/12 Q1018
TAF LRTM 291400Z 2915/2924 VRB04KT 9999 SCT035
       
LRBM 291430Z 26005KT 220V300 9999 BKN045 24/12 Q1017
TAF LRBM 291400Z 2915/2924 25007KT 9999 SCT045
       
LRSM 291430Z 29006KT 260V320 CAVOK 25/10 Q1017
TAF LRSM 291400Z 2915/2924 25007KT CAVOK
       
LROD 291430Z 22006KT 190V260 CAVOK 26/10 Q1017
TAF LROD 291400Z 2915/2924 23010KT CAVOK 
     BECMG 2915/2917 VRB04KT
       
LRCT 291300Z VRB02KT 9999 SCT040 24/11 Q1019 BLU BLU
TAF LRCT 291100Z 2912/3012 VRB04KT 9999 SCT040 
     BECMG 2916/2918 SCT090